sensor_id;sensor_type;location;lat;lon;timestamp;P1;durP1;ratioP1;P2;durP2;ratioP2
79377;SDS011;68959;53.132;17.984;2023-05-07T00:00:21;19.60;;;11.10;;
79377;SDS011;68959;53.132;17.984;2023-05-07T00:03:07;19.70;;;11.20;;
79377;SDS011;68959;53.132;17.984;2023-05-07T00:05:33;20.70;;;11.70;;
79377;SDS011;68959;53.132;17.984;2023-05-07T00:07:59;22.00;;;12.20;;
79377;SDS011;68959;53.132;17.984;2023-05-07T00:10:25;17.20;;;12.10;;
79377;SDS011;68959;53.132;17.984;2023-05-07T00:12:51;23.80;;;14.30;;
79377;SDS011;68959;53.132;17.984;2023-05-07T00:15:17;18.90;;;11.70;;
79377;SDS011;68959;53.132;17.984;2023-05-07T00:17:43;21.40;;;12.20;;
79377;SDS011;68959;53.132;17.984;2023-05-07T00:20:09;18.30;;;10.90;;
79377;SDS011;68959;53.132;17.984;2023-05-07T00:22:35;17.70;;;10.60;;
79377;SDS011;68959;53.132;17.984;2023-05-07T00:25:01;20.00;;;10.60;;
79377;SDS011;68959;53.132;17.984;2023-05-07T00:27:27;24.50;;;12.50;;
79377;SDS011;68959;53.132;17.984;2023-05-07T00:29:53;21.80;;;12.10;;
79377;SDS011;68959;53.132;17.984;2023-05-07T00:32:19;18.80;;;12.00;;
79377;SDS011;68959;53.132;17.984;2023-05-07T00:34:45;25.00;;;13.70;;
79377;SDS011;68959;53.132;17.984;2023-05-07T00:37:11;23.00;;;12.80;;
79377;SDS011;68959;53.132;17.984;2023-05-07T00:39:37;22.70;;;12.20;;
79377;SDS011;68959;53.132;17.984;2023-05-07T00:42:03;26.50;;;12.80;;
79377;SDS011;68959;53.132;17.984;2023-05-07T00:44:29;21.10;;;12.40;;
79377;SDS011;68959;53.132;17.984;2023-05-07T00:46:55;22.90;;;12.30;;
79377;SDS011;68959;53.132;17.984;2023-05-07T00:49:30;18.70;;;12.40;;
79377;SDS011;68959;53.132;17.984;2023-05-07T00:52:11;22.60;;;12.90;;
79377;SDS011;68959;53.132;17.984;2023-05-07T00:54:39;20.50;;;11.90;;
79377;SDS011;68959;53.132;17.984;2023-05-07T00:57:06;21.10;;;13.00;;
79377;SDS011;68959;53.132;17.984;2023-05-07T00:59:32;22.70;;;12.60;;
79377;SDS011;68959;53.132;17.984;2023-05-07T01:01:59;21.20;;;13.00;;
79377;SDS011;68959;53.132;17.984;2023-05-07T01:04:25;28.50;;;13.80;;
79377;SDS011;68959;53.132;17.984;2023-05-07T01:06:52;27.70;;;14.00;;
79377;SDS011;68959;53.132;17.984;2023-05-07T01:09:21;22.80;;;12.30;;
79377;SDS011;68959;53.132;17.984;2023-05-07T01:11:49;21.30;;;12.40;;
79377;SDS011;68959;53.132;17.984;2023-05-07T01:14:17;24.20;;;12.80;;
79377;SDS011;68959;53.132;17.984;2023-05-07T01:16:44;19.40;;;12.30;;
79377;SDS011;68959;53.132;17.984;2023-05-07T01:19:11;23.00;;;14.80;;
79377;SDS011;68959;53.132;17.984;2023-05-07T01:21:40;23.40;;;13.20;;
79377;SDS011;68959;53.132;17.984;2023-05-07T01:24:11;22.00;;;13.00;;
79377;SDS011;68959;53.132;17.984;2023-05-07T01:26:38;21.70;;;12.30;;
79377;SDS011;68959;53.132;17.984;2023-05-07T01:29:04;21.80;;;11.40;;
79377;SDS011;68959;53.132;17.984;2023-05-07T01:31:30;20.40;;;11.50;;
79377;SDS011;68959;53.132;17.984;2023-05-07T01:33:58;23.30;;;13.60;;
79377;SDS011;68959;53.132;17.984;2023-05-07T01:36:26;22.10;;;13.20;;
79377;SDS011;68959;53.132;17.984;2023-05-07T01:38:54;21.80;;;12.70;;
79377;SDS011;68959;53.132;17.984;2023-05-07T01:41:24;24.90;;;15.40;;
79377;SDS011;68959;53.132;17.984;2023-05-07T01:43:50;25.60;;;15.20;;
79377;SDS011;68959;53.132;17.984;2023-05-07T01:46:18;25.50;;;14.20;;
79377;SDS011;68959;53.132;17.984;2023-05-07T01:48:45;19.40;;;12.80;;
79377;SDS011;68959;53.132;17.984;2023-05-07T01:51:11;23.30;;;13.20;;
79377;SDS011;68959;53.132;17.984;2023-05-07T01:53:38;24.90;;;13.60;;
79377;SDS011;68959;53.132;17.984;2023-05-07T01:56:06;22.90;;;12.70;;
79377;SDS011;68959;53.132;17.984;2023-05-07T01:58:33;22.30;;;13.60;;
79377;SDS011;68959;53.132;17.984;2023-05-07T02:00:59;23.50;;;13.40;;
79377;SDS011;68959;53.132;17.984;2023-05-07T02:03:25;21.20;;;12.60;;
79377;SDS011;68959;53.132;17.984;2023-05-07T02:05:56;22.50;;;11.80;;
79377;SDS011;68959;53.132;17.984;2023-05-07T02:08:42;25.90;;;15.00;;
79377;SDS011;68959;53.132;17.984;2023-05-07T02:11:09;22.90;;;13.80;;
79377;SDS011;68959;53.132;17.984;2023-05-07T02:13:35;22.80;;;13.80;;
79377;SDS011;68959;53.132;17.984;2023-05-07T02:16:02;21.20;;;13.90;;
79377;SDS011;68959;53.132;17.984;2023-05-07T02:18:28;24.50;;;12.10;;
79377;SDS011;68959;53.132;17.984;2023-05-07T02:20:54;18.10;;;11.60;;
79377;SDS011;68959;53.132;17.984;2023-05-07T02:23:20;18.70;;;11.10;;
79377;SDS011;68959;53.132;17.984;2023-05-07T02:25:46;18.70;;;11.60;;
79377;SDS011;68959;53.132;17.984;2023-05-07T02:28:12;21.60;;;11.30;;
79377;SDS011;68959;53.132;17.984;2023-05-07T02:30:47;25.80;;;13.90;;
79377;SDS011;68959;53.132;17.984;2023-05-07T02:33:13;21.30;;;13.20;;
79377;SDS011;68959;53.132;17.984;2023-05-07T02:35:39;21.70;;;13.20;;
79377;SDS011;68959;53.132;17.984;2023-05-07T02:38:05;19.00;;;11.80;;
79377;SDS011;68959;53.132;17.984;2023-05-07T02:40:32;20.00;;;11.50;;
79377;SDS011;68959;53.132;17.984;2023-05-07T02:42:59;18.30;;;11.40;;
79377;SDS011;68959;53.132;17.984;2023-05-07T02:45:25;19.50;;;12.10;;
79377;SDS011;68959;53.132;17.984;2023-05-07T02:47:52;20.40;;;12.70;;
79377;SDS011;68959;53.132;17.984;2023-05-07T02:50:18;21.40;;;12.20;;
79377;SDS011;68959;53.132;17.984;2023-05-07T02:52:44;22.40;;;13.30;;
79377;SDS011;68959;53.132;17.984;2023-05-07T02:55:10;20.70;;;13.10;;
79377;SDS011;68959;53.132;17.984;2023-05-07T02:57:36;21.00;;;13.20;;
79377;SDS011;68959;53.132;17.984;2023-05-07T03:00:15;20.50;;;12.80;;
79377;SDS011;68959;53.132;17.984;2023-05-07T03:02:49;22.40;;;12.20;;
79377;SDS011;68959;53.132;17.984;2023-05-07T03:05:15;18.70;;;11.30;;
79377;SDS011;68959;53.132;17.984;2023-05-07T03:07:41;18.10;;;11.20;;
79377;SDS011;68959;53.132;17.984;2023-05-07T03:10:10;19.40;;;12.20;;
79377;SDS011;68959;53.132;17.984;2023-05-07T03:12:37;20.00;;;12.10;;
79377;SDS011;68959;53.132;17.984;2023-05-07T03:15:03;19.00;;;12.30;;
79377;SDS011;68959;53.132;17.984;2023-05-07T03:17:29;26.40;;;16.40;;
79377;SDS011;68959;53.132;17.984;2023-05-07T03:19:55;21.40;;;13.70;;
79377;SDS011;68959;53.132;17.984;2023-05-07T03:22:21;22.70;;;13.70;;
79377;SDS011;68959;53.132;17.984;2023-05-07T03:24:47;21.40;;;13.50;;
79377;SDS011;68959;53.132;17.984;2023-05-07T03:27:13;29.10;;;19.00;;
79377;SDS011;68959;53.132;17.984;2023-05-07T03:29:39;31.70;;;20.90;;
79377;SDS011;68959;53.132;17.984;2023-05-07T03:32:05;32.70;;;20.60;;
79377;SDS011;68959;53.132;17.984;2023-05-07T03:34:31;33.60;;;23.10;;
79377;SDS011;68959;53.132;17.984;2023-05-07T03:36:57;36.10;;;23.60;;
79377;SDS011;68959;53.132;17.984;2023-05-07T03:39:23;44.60;;;29.80;;
79377;SDS011;68959;53.132;17.984;2023-05-07T03:41:49;61.40;;;42.10;;
79377;SDS011;68959;53.132;17.984;2023-05-07T03:44:15;60.00;;;41.40;;
79377;SDS011;68959;53.132;17.984;2023-05-07T03:46:41;51.10;;;35.10;;
79377;SDS011;68959;53.132;17.984;2023-05-07T03:49:09;45.30;;;33.40;;
79377;SDS011;68959;53.132;17.984;2023-05-07T03:51:35;48.00;;;32.80;;
79377;SDS011;68959;53.132;17.984;2023-05-07T03:54:02;35.60;;;23.30;;
79377;SDS011;68959;53.132;17.984;2023-05-07T03:56:28;45.00;;;28.60;;
79377;SDS011;68959;53.132;17.984;2023-05-07T03:58:56;42.10;;;30.50;;
79377;SDS011;68959;53.132;17.984;2023-05-07T04:01:22;44.10;;;30.20;;
79377;SDS011;68959;53.132;17.984;2023-05-07T04:03:48;50.70;;;33.90;;
79377;SDS011;68959;53.132;17.984;2023-05-07T04:06:15;56.50;;;37.00;;
79377;SDS011;68959;53.132;17.984;2023-05-07T04:08:43;55.40;;;35.60;;
79377;SDS011;68959;53.132;17.984;2023-05-07T04:11:09;53.70;;;31.40;;
79377;SDS011;68959;53.132;17.984;2023-05-07T04:13:36;44.80;;;27.70;;
79377;SDS011;68959;53.132;17.984;2023-05-07T04:16:02;40.30;;;23.30;;
79377;SDS011;68959;53.132;17.984;2023-05-07T04:18:29;47.10;;;29.40;;
79377;SDS011;68959;53.132;17.984;2023-05-07T04:20:55;49.40;;;29.50;;
79377;SDS011;68959;53.132;17.984;2023-05-07T04:23:21;47.30;;;28.70;;
79377;SDS011;68959;53.132;17.984;2023-05-07T04:25:47;48.40;;;29.50;;
79377;SDS011;68959;53.132;17.984;2023-05-07T04:28:20;58.00;;;33.90;;
79377;SDS011;68959;53.132;17.984;2023-05-07T04:30:46;51.40;;;30.20;;
79377;SDS011;68959;53.132;17.984;2023-05-07T04:33:13;42.50;;;25.00;;
79377;SDS011;68959;53.132;17.984;2023-05-07T04:35:42;39.20;;;23.50;;
79377;SDS011;68959;53.132;17.984;2023-05-07T04:38:08;37.70;;;21.20;;
79377;SDS011;68959;53.132;17.984;2023-05-07T04:40:35;32.30;;;21.60;;
79377;SDS011;68959;53.132;17.984;2023-05-07T04:43:01;36.20;;;21.70;;
79377;SDS011;68959;53.132;17.984;2023-05-07T04:45:29;34.10;;;20.70;;
79377;SDS011;68959;53.132;17.984;2023-05-07T04:47:56;30.70;;;19.00;;
79377;SDS011;68959;53.132;17.984;2023-05-07T04:50:21;33.90;;;21.10;;
79377;SDS011;68959;53.132;17.984;2023-05-07T04:52:50;33.10;;;20.40;;
79377;SDS011;68959;53.132;17.984;2023-05-07T04:55:17;29.90;;;18.10;;
79377;SDS011;68959;53.132;17.984;2023-05-07T04:57:43;27.10;;;16.60;;
79377;SDS011;68959;53.132;17.984;2023-05-07T05:00:10;26.10;;;15.80;;
79377;SDS011;68959;53.132;17.984;2023-05-07T05:02:37;24.90;;;16.60;;
79377;SDS011;68959;53.132;17.984;2023-05-07T05:05:03;22.90;;;15.60;;
79377;SDS011;68959;53.132;17.984;2023-05-07T05:07:29;22.90;;;14.20;;
79377;SDS011;68959;53.132;17.984;2023-05-07T05:09:56;21.80;;;12.90;;
79377;SDS011;68959;53.132;17.984;2023-05-07T05:12:23;22.70;;;13.00;;
79377;SDS011;68959;53.132;17.984;2023-05-07T05:14:49;21.10;;;12.10;;
79377;SDS011;68959;53.132;17.984;2023-05-07T05:17:16;21.00;;;12.20;;
79377;SDS011;68959;53.132;17.984;2023-05-07T05:19:42;20.60;;;11.80;;
79377;SDS011;68959;53.132;17.984;2023-05-07T05:22:08;20.40;;;12.50;;
79377;SDS011;68959;53.132;17.984;2023-05-07T05:24:34;23.10;;;12.20;;
79377;SDS011;68959;53.132;17.984;2023-05-07T05:27:01;21.90;;;13.70;;
79377;SDS011;68959;53.132;17.984;2023-05-07T05:29:28;17.90;;;11.20;;
79377;SDS011;68959;53.132;17.984;2023-05-07T05:31:54;16.90;;;11.60;;
79377;SDS011;68959;53.132;17.984;2023-05-07T05:34:21;18.20;;;11.30;;
79377;SDS011;68959;53.132;17.984;2023-05-07T05:36:48;21.20;;;11.30;;
79377;SDS011;68959;53.132;17.984;2023-05-07T05:39:14;18.20;;;11.40;;
79377;SDS011;68959;53.132;17.984;2023-05-07T05:41:40;19.20;;;10.40;;
79377;SDS011;68959;53.132;17.984;2023-05-07T05:44:06;21.30;;;11.70;;
79377;SDS011;68959;53.132;17.984;2023-05-07T05:46:32;22.20;;;11.50;;
79377;SDS011;68959;53.132;17.984;2023-05-07T05:48:58;16.00;;;10.50;;
79377;SDS011;68959;53.132;17.984;2023-05-07T05:51:25;18.30;;;10.30;;
79377;SDS011;68959;53.132;17.984;2023-05-07T05:53:52;19.30;;;11.20;;
79377;SDS011;68959;53.132;17.984;2023-05-07T05:56:18;18.50;;;11.20;;
79377;SDS011;68959;53.132;17.984;2023-05-07T05:58:44;18.90;;;8.90;;
79377;SDS011;68959;53.132;17.984;2023-05-07T06:01:10;20.10;;;11.50;;
79377;SDS011;68959;53.132;17.984;2023-05-07T06:03:37;18.10;;;11.30;;
79377;SDS011;68959;53.132;17.984;2023-05-07T06:06:06;22.00;;;10.70;;
79377;SDS011;68959;53.132;17.984;2023-05-07T06:08:32;14.50;;;9.70;;
79377;SDS011;68959;53.132;17.984;2023-05-07T06:10:58;14.20;;;9.90;;
79377;SDS011;68959;53.132;17.984;2023-05-07T06:13:25;18.10;;;11.40;;
79377;SDS011;68959;53.132;17.984;2023-05-07T06:15:51;15.50;;;9.90;;
79377;SDS011;68959;53.132;17.984;2023-05-07T06:18:17;22.20;;;9.30;;
79377;SDS011;68959;53.132;17.984;2023-05-07T06:20:43;15.60;;;8.60;;
79377;SDS011;68959;53.132;17.984;2023-05-07T06:23:14;14.60;;;7.90;;
79377;SDS011;68959;53.132;17.984;2023-05-07T06:25:40;12.20;;;7.50;;
79377;SDS011;68959;53.132;17.984;2023-05-07T06:28:06;17.10;;;8.30;;
79377;SDS011;68959;53.132;17.984;2023-05-07T06:30:34;11.30;;;7.90;;
79377;SDS011;68959;53.132;17.984;2023-05-07T06:33:00;14.60;;;8.00;;
79377;SDS011;68959;53.132;17.984;2023-05-07T06:35:27;13.50;;;8.20;;
79377;SDS011;68959;53.132;17.984;2023-05-07T06:37:53;10.80;;;7.00;;
79377;SDS011;68959;53.132;17.984;2023-05-07T06:40:22;10.40;;;6.90;;
79377;SDS011;68959;53.132;17.984;2023-05-07T06:42:48;11.90;;;6.10;;
79377;SDS011;68959;53.132;17.984;2023-05-07T06:45:32;10.80;;;6.10;;
79377;SDS011;68959;53.132;17.984;2023-05-07T06:47:59;12.00;;;7.40;;
79377;SDS011;68959;53.132;17.984;2023-05-07T06:50:25;10.00;;;7.30;;
79377;SDS011;68959;53.132;17.984;2023-05-07T06:52:54;11.80;;;6.50;;
79377;SDS011;68959;53.132;17.984;2023-05-07T06:55:20;12.90;;;6.90;;
79377;SDS011;68959;53.132;17.984;2023-05-07T06:57:46;15.00;;;6.80;;
79377;SDS011;68959;53.132;17.984;2023-05-07T07:00:13;9.40;;;6.10;;
79377;SDS011;68959;53.132;17.984;2023-05-07T07:02:47;10.50;;;6.20;;
79377;SDS011;68959;53.132;17.984;2023-05-07T07:05:13;10.40;;;6.30;;
79377;SDS011;68959;53.132;17.984;2023-05-07T07:07:39;19.20;;;7.00;;
79377;SDS011;68959;53.132;17.984;2023-05-07T07:10:05;11.70;;;6.00;;
79377;SDS011;68959;53.132;17.984;2023-05-07T07:12:32;9.80;;;5.80;;
79377;SDS011;68959;53.132;17.984;2023-05-07T07:14:58;9.70;;;6.30;;
79377;SDS011;68959;53.132;17.984;2023-05-07T07:17:24;9.30;;;5.70;;
79377;SDS011;68959;53.132;17.984;2023-05-07T07:19:49;9.50;;;6.40;;
79377;SDS011;68959;53.132;17.984;2023-05-07T07:22:16;12.30;;;6.00;;
79377;SDS011;68959;53.132;17.984;2023-05-07T07:24:42;8.40;;;6.30;;
79377;SDS011;68959;53.132;17.984;2023-05-07T07:27:09;9.40;;;6.20;;
79377;SDS011;68959;53.132;17.984;2023-05-07T07:29:35;9.00;;;5.60;;
79377;SDS011;68959;53.132;17.984;2023-05-07T07:32:01;13.40;;;6.90;;
79377;SDS011;68959;53.132;17.984;2023-05-07T07:34:27;11.70;;;6.30;;
79377;SDS011;68959;53.132;17.984;2023-05-07T07:36:53;10.20;;;6.40;;
79377;SDS011;68959;53.132;17.984;2023-05-07T07:39:19;10.80;;;6.00;;
79377;SDS011;68959;53.132;17.984;2023-05-07T07:41:46;7.80;;;5.40;;
79377;SDS011;68959;53.132;17.984;2023-05-07T07:44:12;15.30;;;6.20;;
79377;SDS011;68959;53.132;17.984;2023-05-07T07:46:39;9.80;;;6.30;;
79377;SDS011;68959;53.132;17.984;2023-05-07T07:49:06;10.10;;;6.20;;
79377;SDS011;68959;53.132;17.984;2023-05-07T07:51:32;7.90;;;5.50;;
79377;SDS011;68959;53.132;17.984;2023-05-07T07:53:58;10.20;;;5.50;;
79377;SDS011;68959;53.132;17.984;2023-05-07T07:56:24;10.90;;;6.30;;
79377;SDS011;68959;53.132;17.984;2023-05-07T07:58:51;9.90;;;5.90;;
79377;SDS011;68959;53.132;17.984;2023-05-07T08:01:18;9.70;;;4.50;;
79377;SDS011;68959;53.132;17.984;2023-05-07T08:03:45;11.30;;;4.80;;
79377;SDS011;68959;53.132;17.984;2023-05-07T08:06:11;5.50;;;4.10;;
79377;SDS011;68959;53.132;17.984;2023-05-07T08:08:37;10.20;;;4.70;;
79377;SDS011;68959;53.132;17.984;2023-05-07T08:11:03;7.90;;;4.60;;
79377;SDS011;68959;53.132;17.984;2023-05-07T08:13:31;7.10;;;4.70;;
79377;SDS011;68959;53.132;17.984;2023-05-07T08:15:57;6.40;;;3.90;;
79377;SDS011;68959;53.132;17.984;2023-05-07T08:18:24;9.30;;;3.90;;
79377;SDS011;68959;53.132;17.984;2023-05-07T08:20:51;7.50;;;4.10;;
79377;SDS011;68959;53.132;17.984;2023-05-07T08:23:20;6.10;;;3.90;;
79377;SDS011;68959;53.132;17.984;2023-05-07T08:25:47;10.60;;;3.80;;
79377;SDS011;68959;53.132;17.984;2023-05-07T08:28:15;7.50;;;3.90;;
79377;SDS011;68959;53.132;17.984;2023-05-07T08:30:41;8.30;;;4.20;;
79377;SDS011;68959;53.132;17.984;2023-05-07T08:33:08;7.90;;;3.80;;
79377;SDS011;68959;53.132;17.984;2023-05-07T08:35:35;6.50;;;3.50;;
79377;SDS011;68959;53.132;17.984;2023-05-07T08:38:01;8.30;;;3.80;;
79377;SDS011;68959;53.132;17.984;2023-05-07T08:40:27;5.30;;;3.60;;
79377;SDS011;68959;53.132;17.984;2023-05-07T08:42:54;5.10;;;3.00;;
79377;SDS011;68959;53.132;17.984;2023-05-07T08:45:22;6.00;;;2.80;;
79377;SDS011;68959;53.132;17.984;2023-05-07T08:47:51;7.60;;;3.30;;
79377;SDS011;68959;53.132;17.984;2023-05-07T08:50:19;6.80;;;3.60;;
79377;SDS011;68959;53.132;17.984;2023-05-07T08:52:47;9.10;;;3.40;;
79377;SDS011;68959;53.132;17.984;2023-05-07T08:55:13;5.60;;;3.30;;
79377;SDS011;68959;53.132;17.984;2023-05-07T08:57:41;4.10;;;2.90;;
79377;SDS011;68959;53.132;17.984;2023-05-07T09:00:08;5.90;;;3.30;;
79377;SDS011;68959;53.132;17.984;2023-05-07T09:02:35;7.10;;;4.00;;
79377;SDS011;68959;53.132;17.984;2023-05-07T09:05:02;7.20;;;3.40;;
79377;SDS011;68959;53.132;17.984;2023-05-07T09:07:28;6.10;;;3.30;;
79377;SDS011;68959;53.132;17.984;2023-05-07T09:09:56;5.70;;;3.30;;
79377;SDS011;68959;53.132;17.984;2023-05-07T09:12:23;9.20;;;3.30;;
79377;SDS011;68959;53.132;17.984;2023-05-07T09:14:49;5.00;;;3.50;;
79377;SDS011;68959;53.132;17.984;2023-05-07T09:17:16;6.30;;;3.60;;
79377;SDS011;68959;53.132;17.984;2023-05-07T09:19:43;8.60;;;4.20;;
79377;SDS011;68959;53.132;17.984;2023-05-07T09:22:10;4.10;;;2.60;;
79377;SDS011;68959;53.132;17.984;2023-05-07T09:24:58;5.50;;;3.40;;
79377;SDS011;68959;53.132;17.984;2023-05-07T09:27:25;8.30;;;3.40;;
79377;SDS011;68959;53.132;17.984;2023-05-07T09:29:52;4.90;;;2.80;;
79377;SDS011;68959;53.132;17.984;2023-05-07T09:32:18;3.80;;;3.10;;
79377;SDS011;68959;53.132;17.984;2023-05-07T09:34:44;4.20;;;2.90;;
79377;SDS011;68959;53.132;17.984;2023-05-07T09:37:12;5.10;;;3.10;;
79377;SDS011;68959;53.132;17.984;2023-05-07T09:39:40;7.40;;;3.00;;
79377;SDS011;68959;53.132;17.984;2023-05-07T09:42:06;5.10;;;3.20;;
79377;SDS011;68959;53.132;17.984;2023-05-07T09:44:34;8.00;;;3.20;;
79377;SDS011;68959;53.132;17.984;2023-05-07T09:47:01;5.70;;;3.20;;
79377;SDS011;68959;53.132;17.984;2023-05-07T09:49:35;5.10;;;2.90;;
79377;SDS011;68959;53.132;17.984;2023-05-07T09:52:05;5.80;;;3.00;;
79377;SDS011;68959;53.132;17.984;2023-05-07T09:54:35;5.50;;;3.20;;
79377;SDS011;68959;53.132;17.984;2023-05-07T09:57:04;4.90;;;3.30;;
79377;SDS011;68959;53.132;17.984;2023-05-07T09:59:32;6.70;;;3.70;;
79377;SDS011;68959;53.132;17.984;2023-05-07T10:02:00;4.70;;;3.00;;
79377;SDS011;68959;53.132;17.984;2023-05-07T10:04:27;5.00;;;3.70;;
79377;SDS011;68959;53.132;17.984;2023-05-07T10:06:54;6.60;;;3.60;;
79377;SDS011;68959;53.132;17.984;2023-05-07T10:09:21;5.60;;;3.60;;
79377;SDS011;68959;53.132;17.984;2023-05-07T10:11:52;6.70;;;3.50;;
79377;SDS011;68959;53.132;17.984;2023-05-07T10:14:20;6.20;;;3.60;;
79377;SDS011;68959;53.132;17.984;2023-05-07T10:16:48;6.90;;;3.60;;
79377;SDS011;68959;53.132;17.984;2023-05-07T10:19:14;4.80;;;3.40;;
79377;SDS011;68959;53.132;17.984;2023-05-07T10:21:44;4.00;;;2.30;;
79377;SDS011;68959;53.132;17.984;2023-05-07T10:24:21;6.80;;;3.40;;
79377;SDS011;68959;53.132;17.984;2023-05-07T10:26:52;5.40;;;3.00;;
79377;SDS011;68959;53.132;17.984;2023-05-07T10:34:56;6.70;;;3.00;;
79377;SDS011;68959;53.132;17.984;2023-05-07T10:37:24;11.20;;;3.60;;
79377;SDS011;68959;53.132;17.984;2023-05-07T10:39:51;5.20;;;3.40;;
79377;SDS011;68959;53.132;17.984;2023-05-07T10:42:18;5.80;;;3.30;;
79377;SDS011;68959;53.132;17.984;2023-05-07T10:44:47;5.30;;;2.80;;
79377;SDS011;68959;53.132;17.984;2023-05-07T10:47:20;4.30;;;2.60;;
79377;SDS011;68959;53.132;17.984;2023-05-07T10:52:22;6.30;;;3.60;;
79377;SDS011;68959;53.132;17.984;2023-05-07T10:57:44;4.00;;;2.90;;
79377;SDS011;68959;53.132;17.984;2023-05-07T11:05:24;5.20;;;3.10;;
79377;SDS011;68959;53.132;17.984;2023-05-07T11:08:08;5.00;;;2.60;;
79377;SDS011;68959;53.132;17.984;2023-05-07T11:13:43;4.60;;;2.90;;
79377;SDS011;68959;53.132;17.984;2023-05-07T11:16:19;4.20;;;3.00;;
79377;SDS011;68959;53.132;17.984;2023-05-07T11:18:53;6.50;;;3.60;;
79377;SDS011;68959;53.132;17.984;2023-05-07T11:24:14;5.50;;;3.10;;
79377;SDS011;68959;53.132;17.984;2023-05-07T11:26:54;3.50;;;2.90;;
79377;SDS011;68959;53.132;17.984;2023-05-07T11:29:21;5.40;;;2.90;;
79377;SDS011;68959;53.132;17.984;2023-05-07T11:31:49;4.90;;;3.10;;
79377;SDS011;68959;53.132;17.984;2023-05-07T11:34:23;4.20;;;3.20;;
79377;SDS011;68959;53.132;17.984;2023-05-07T11:36:51;5.40;;;3.00;;
79377;SDS011;68959;53.132;17.984;2023-05-07T11:39:26;5.50;;;2.90;;
79377;SDS011;68959;53.132;17.984;2023-05-07T11:41:57;5.30;;;3.10;;
79377;SDS011;68959;53.132;17.984;2023-05-07T11:44:23;4.70;;;2.90;;
79377;SDS011;68959;53.132;17.984;2023-05-07T11:46:49;5.10;;;3.10;;
79377;SDS011;68959;53.132;17.984;2023-05-07T11:49:15;4.60;;;3.10;;
79377;SDS011;68959;53.132;17.984;2023-05-07T11:51:42;5.50;;;3.10;;
79377;SDS011;68959;53.132;17.984;2023-05-07T11:54:08;5.60;;;3.10;;
79377;SDS011;68959;53.132;17.984;2023-05-07T11:56:36;4.80;;;3.50;;
79377;SDS011;68959;53.132;17.984;2023-05-07T11:59:03;6.40;;;3.30;;
79377;SDS011;68959;53.132;17.984;2023-05-07T12:01:28;3.70;;;2.60;;
79377;SDS011;68959;53.132;17.984;2023-05-07T12:03:55;4.80;;;3.50;;
79377;SDS011;68959;53.132;17.984;2023-05-07T12:06:21;5.40;;;3.30;;
79377;SDS011;68959;53.132;17.984;2023-05-07T12:08:47;6.20;;;3.30;;
79377;SDS011;68959;53.132;17.984;2023-05-07T12:11:14;4.70;;;3.50;;
79377;SDS011;68959;53.132;17.984;2023-05-07T12:13:42;6.30;;;3.60;;
79377;SDS011;68959;53.132;17.984;2023-05-07T12:16:09;7.70;;;3.60;;
79377;SDS011;68959;53.132;17.984;2023-05-07T12:18:36;7.80;;;3.80;;
79377;SDS011;68959;53.132;17.984;2023-05-07T12:21:03;7.90;;;2.90;;
79377;SDS011;68959;53.132;17.984;2023-05-07T12:23:30;4.10;;;3.10;;
79377;SDS011;68959;53.132;17.984;2023-05-07T12:25:56;4.10;;;2.50;;
79377;SDS011;68959;53.132;17.984;2023-05-07T12:28:22;4.70;;;2.80;;
79377;SDS011;68959;53.132;17.984;2023-05-07T12:30:49;5.70;;;3.30;;
79377;SDS011;68959;53.132;17.984;2023-05-07T12:33:17;6.40;;;2.80;;
79377;SDS011;68959;53.132;17.984;2023-05-07T12:35:44;3.80;;;2.60;;
79377;SDS011;68959;53.132;17.984;2023-05-07T12:38:14;5.20;;;2.90;;
79377;SDS011;68959;53.132;17.984;2023-05-07T12:40:43;5.90;;;2.60;;
79377;SDS011;68959;53.132;17.984;2023-05-07T12:43:26;2.70;;;2.20;;
79377;SDS011;68959;53.132;17.984;2023-05-07T12:45:55;4.90;;;3.00;;
79377;SDS011;68959;53.132;17.984;2023-05-07T12:48:25;4.40;;;2.80;;
79377;SDS011;68959;53.132;17.984;2023-05-07T12:50:54;7.60;;;2.80;;
79377;SDS011;68959;53.132;17.984;2023-05-07T12:53:22;4.50;;;2.80;;
79377;SDS011;68959;53.132;17.984;2023-05-07T12:55:51;4.50;;;2.70;;
79377;SDS011;68959;53.132;17.984;2023-05-07T13:00:56;4.30;;;2.50;;
79377;SDS011;68959;53.132;17.984;2023-05-07T13:08:35;3.80;;;2.50;;
79377;SDS011;68959;53.132;17.984;2023-05-07T13:11:03;3.50;;;2.40;;
79377;SDS011;68959;53.132;17.984;2023-05-07T13:13:30;4.70;;;2.40;;
79377;SDS011;68959;53.132;17.984;2023-05-07T13:15:57;5.10;;;2.60;;
79377;SDS011;68959;53.132;17.984;2023-05-07T13:18:24;4.90;;;2.80;;
79377;SDS011;68959;53.132;17.984;2023-05-07T13:20:52;5.40;;;2.60;;
79377;SDS011;68959;53.132;17.984;2023-05-07T13:23:18;5.40;;;2.50;;
79377;SDS011;68959;53.132;17.984;2023-05-07T13:25:44;4.60;;;2.40;;
79377;SDS011;68959;53.132;17.984;2023-05-07T13:28:10;3.60;;;2.30;;
79377;SDS011;68959;53.132;17.984;2023-05-07T13:30:36;4.50;;;2.50;;
79377;SDS011;68959;53.132;17.984;2023-05-07T13:33:03;3.70;;;2.30;;
79377;SDS011;68959;53.132;17.984;2023-05-07T13:35:29;4.10;;;2.60;;
79377;SDS011;68959;53.132;17.984;2023-05-07T13:37:56;8.20;;;2.70;;
79377;SDS011;68959;53.132;17.984;2023-05-07T13:40:22;4.90;;;2.50;;
79377;SDS011;68959;53.132;17.984;2023-05-07T13:42:48;6.00;;;2.90;;
79377;SDS011;68959;53.132;17.984;2023-05-07T13:45:16;3.40;;;2.00;;
79377;SDS011;68959;53.132;17.984;2023-05-07T13:47:43;4.80;;;2.80;;
79377;SDS011;68959;53.132;17.984;2023-05-07T13:50:09;4.50;;;2.50;;
79377;SDS011;68959;53.132;17.984;2023-05-07T13:52:37;3.80;;;2.60;;
79377;SDS011;68959;53.132;17.984;2023-05-07T13:55:03;5.70;;;2.90;;
79377;SDS011;68959;53.132;17.984;2023-05-07T13:57:29;3.10;;;2.20;;
79377;SDS011;68959;53.132;17.984;2023-05-07T13:59:55;3.70;;;2.50;;
79377;SDS011;68959;53.132;17.984;2023-05-07T14:02:21;3.50;;;2.60;;
79377;SDS011;68959;53.132;17.984;2023-05-07T14:04:47;4.80;;;2.50;;
79377;SDS011;68959;53.132;17.984;2023-05-07T14:07:13;5.40;;;2.40;;
79377;SDS011;68959;53.132;17.984;2023-05-07T14:09:39;4.40;;;2.50;;
79377;SDS011;68959;53.132;17.984;2023-05-07T14:12:05;5.20;;;2.50;;
79377;SDS011;68959;53.132;17.984;2023-05-07T14:14:31;5.30;;;2.80;;
79377;SDS011;68959;53.132;17.984;2023-05-07T14:16:57;6.10;;;2.60;;
79377;SDS011;68959;53.132;17.984;2023-05-07T14:19:23;3.30;;;2.50;;
79377;SDS011;68959;53.132;17.984;2023-05-07T14:21:49;4.10;;;2.60;;
79377;SDS011;68959;53.132;17.984;2023-05-07T14:24:15;8.40;;;2.70;;
79377;SDS011;68959;53.132;17.984;2023-05-07T14:26:41;3.90;;;2.60;;
79377;SDS011;68959;53.132;17.984;2023-05-07T14:29:07;5.00;;;2.50;;
79377;SDS011;68959;53.132;17.984;2023-05-07T14:31:33;4.10;;;2.30;;
79377;SDS011;68959;53.132;17.984;2023-05-07T14:33:59;4.30;;;2.20;;
79377;SDS011;68959;53.132;17.984;2023-05-07T14:36:25;3.50;;;2.60;;
79377;SDS011;68959;53.132;17.984;2023-05-07T14:38:55;3.20;;;2.20;;
79377;SDS011;68959;53.132;17.984;2023-05-07T14:41:22;5.80;;;2.30;;
79377;SDS011;68959;53.132;17.984;2023-05-07T14:43:48;3.50;;;2.40;;
79377;SDS011;68959;53.132;17.984;2023-05-07T14:46:16;5.20;;;2.50;;
79377;SDS011;68959;53.132;17.984;2023-05-07T14:48:43;4.90;;;2.80;;
79377;SDS011;68959;53.132;17.984;2023-05-07T14:51:10;6.10;;;2.60;;